sensor_id;sensor_type;location;lat;lon;timestamp;P1;durP1;ratioP1;P2;durP2;ratioP2
11887;SDS011;6003;42.756;23.130;2023-06-14T00:00:04;2.13;;;2.00;;
11887;SDS011;6003;42.756;23.130;2023-06-14T00:02:33;2.00;;;1.90;;
11887;SDS011;6003;42.756;23.130;2023-06-14T00:04:59;2.00;;;1.90;;
11887;SDS011;6003;42.756;23.130;2023-06-14T00:07:34;1.93;;;1.83;;
11887;SDS011;6003;42.756;23.130;2023-06-14T00:10:03;2.20;;;1.73;;
11887;SDS011;6003;42.756;23.130;2023-06-14T00:12:30;2.70;;;2.50;;
11887;SDS011;6003;42.756;23.130;2023-06-14T00:14:57;2.10;;;2.00;;
11887;SDS011;6003;42.756;23.130;2023-06-14T00:17:26;2.40;;;2.20;;
11887;SDS011;6003;42.756;23.130;2023-06-14T00:19:55;1.90;;;1.80;;
11887;SDS011;6003;42.756;23.130;2023-06-14T00:22:22;2.13;;;1.90;;
11887;SDS011;6003;42.756;23.130;2023-06-14T00:24:51;2.17;;;1.97;;
11887;SDS011;6003;42.756;23.130;2023-06-14T00:27:18;2.03;;;1.93;;
11887;SDS011;6003;42.756;23.130;2023-06-14T00:29:45;2.20;;;2.00;;
11887;SDS011;6003;42.756;23.130;2023-06-14T00:32:12;2.87;;;2.00;;
11887;SDS011;6003;42.756;23.130;2023-06-14T00:34:38;2.40;;;2.17;;
11887;SDS011;6003;42.756;23.130;2023-06-14T00:37:05;1.70;;;1.60;;
11887;SDS011;6003;42.756;23.130;2023-06-14T00:39:33;2.20;;;2.03;;
11887;SDS011;6003;42.756;23.130;2023-06-14T00:42:01;1.97;;;1.77;;
11887;SDS011;6003;42.756;23.130;2023-06-14T00:44:29;1.73;;;1.63;;
11887;SDS011;6003;42.756;23.130;2023-06-14T00:46:55;2.10;;;2.00;;
11887;SDS011;6003;42.756;23.130;2023-06-14T00:49:22;1.87;;;1.77;;
11887;SDS011;6003;42.756;23.130;2023-06-14T00:51:50;2.30;;;2.17;;
11887;SDS011;6003;42.756;23.130;2023-06-14T00:54:16;2.40;;;2.20;;
11887;SDS011;6003;42.756;23.130;2023-06-14T00:56:43;1.80;;;1.70;;
11887;SDS011;6003;42.756;23.130;2023-06-14T00:59:12;2.70;;;2.10;;
11887;SDS011;6003;42.756;23.130;2023-06-14T01:01:40;1.80;;;1.70;;
11887;SDS011;6003;42.756;23.130;2023-06-14T01:04:07;1.97;;;1.87;;
11887;SDS011;6003;42.756;23.130;2023-06-14T01:06:41;1.70;;;1.60;;
11887;SDS011;6003;42.756;23.130;2023-06-14T01:09:14;3.63;;;1.73;;
11887;SDS011;6003;42.756;23.130;2023-06-14T01:11:47;2.03;;;1.93;;
11887;SDS011;6003;42.756;23.130;2023-06-14T01:14:21;2.20;;;2.00;;
11887;SDS011;6003;42.756;23.130;2023-06-14T01:16:50;1.93;;;1.83;;
11887;SDS011;6003;42.756;23.130;2023-06-14T01:19:18;2.00;;;1.77;;
11887;SDS011;6003;42.756;23.130;2023-06-14T01:21:47;3.00;;;1.80;;
11887;SDS011;6003;42.756;23.130;2023-06-14T01:24:17;2.00;;;1.90;;
11887;SDS011;6003;42.756;23.130;2023-06-14T01:26:50;1.83;;;1.70;;
11887;SDS011;6003;42.756;23.130;2023-06-14T01:29:21;2.03;;;1.93;;
11887;SDS011;6003;42.756;23.130;2023-06-14T01:31:48;2.03;;;1.93;;
11887;SDS011;6003;42.756;23.130;2023-06-14T01:34:16;2.00;;;1.90;;
11887;SDS011;6003;42.756;23.130;2023-06-14T01:36:43;2.10;;;1.93;;
11887;SDS011;6003;42.756;23.130;2023-06-14T01:39:11;1.73;;;1.57;;
11887;SDS011;6003;42.756;23.130;2023-06-14T01:41:42;2.10;;;1.90;;
11887;SDS011;6003;42.756;23.130;2023-06-14T01:44:11;1.80;;;1.70;;
11887;SDS011;6003;42.756;23.130;2023-06-14T01:46:40;1.70;;;1.60;;
11887;SDS011;6003;42.756;23.130;2023-06-14T01:49:09;1.87;;;1.77;;
11887;SDS011;6003;42.756;23.130;2023-06-14T01:51:37;1.83;;;1.73;;
11887;SDS011;6003;42.756;23.130;2023-06-14T01:54:03;1.80;;;1.70;;
11887;SDS011;6003;42.756;23.130;2023-06-14T01:56:30;2.17;;;1.93;;
11887;SDS011;6003;42.756;23.130;2023-06-14T01:58:59;1.80;;;1.70;;
11887;SDS011;6003;42.756;23.130;2023-06-14T02:01:25;2.00;;;1.90;;
11887;SDS011;6003;42.756;23.130;2023-06-14T02:03:52;5.00;;;2.00;;
11887;SDS011;6003;42.756;23.130;2023-06-14T02:06:19;2.00;;;1.80;;
11887;SDS011;6003;42.756;23.130;2023-06-14T02:08:46;2.13;;;1.87;;
11887;SDS011;6003;42.756;23.130;2023-06-14T02:11:12;2.30;;;2.10;;
11887;SDS011;6003;42.756;23.130;2023-06-14T02:13:39;1.70;;;1.60;;
11887;SDS011;6003;42.756;23.130;2023-06-14T02:16:07;2.30;;;2.10;;
11887;SDS011;6003;42.756;23.130;2023-06-14T02:18:34;1.70;;;1.60;;
11887;SDS011;6003;42.756;23.130;2023-06-14T02:21:02;1.60;;;1.50;;
11887;SDS011;6003;42.756;23.130;2023-06-14T02:23:29;1.83;;;1.73;;
11887;SDS011;6003;42.756;23.130;2023-06-14T02:25:57;1.90;;;1.80;;
11887;SDS011;6003;42.756;23.130;2023-06-14T02:28:23;1.83;;;1.70;;
11887;SDS011;6003;42.756;23.130;2023-06-14T02:30:50;1.80;;;1.70;;
11887;SDS011;6003;42.756;23.130;2023-06-14T02:33:18;1.77;;;1.67;;
11887;SDS011;6003;42.756;23.130;2023-06-14T02:35:47;1.90;;;1.80;;
11887;SDS011;6003;42.756;23.130;2023-06-14T02:38:13;1.63;;;1.53;;
11887;SDS011;6003;42.756;23.130;2023-06-14T02:40:40;1.90;;;1.80;;
11887;SDS011;6003;42.756;23.130;2023-06-14T02:43:08;2.07;;;1.87;;
11887;SDS011;6003;42.756;23.130;2023-06-14T02:45:34;1.93;;;1.80;;
11887;SDS011;6003;42.756;23.130;2023-06-14T02:48:01;1.90;;;1.80;;
11887;SDS011;6003;42.756;23.130;2023-06-14T02:50:30;2.07;;;1.80;;
11887;SDS011;6003;42.756;23.130;2023-06-14T02:52:57;1.80;;;1.70;;
11887;SDS011;6003;42.756;23.130;2023-06-14T02:55:24;1.73;;;1.63;;
11887;SDS011;6003;42.756;23.130;2023-06-14T02:57:51;1.83;;;1.73;;
11887;SDS011;6003;42.756;23.130;2023-06-14T03:00:18;2.30;;;2.20;;
11887;SDS011;6003;42.756;23.130;2023-06-14T03:02:45;2.20;;;1.97;;
11887;SDS011;6003;42.756;23.130;2023-06-14T03:05:12;1.77;;;1.67;;
11887;SDS011;6003;42.756;23.130;2023-06-14T03:07:40;2.20;;;2.00;;
11887;SDS011;6003;42.756;23.130;2023-06-14T03:10:10;1.87;;;1.77;;
11887;SDS011;6003;42.756;23.130;2023-06-14T03:12:38;1.80;;;1.70;;
11887;SDS011;6003;42.756;23.130;2023-06-14T03:15:05;1.80;;;1.70;;
11887;SDS011;6003;42.756;23.130;2023-06-14T03:17:32;2.00;;;1.90;;
11887;SDS011;6003;42.756;23.130;2023-06-14T03:20:00;1.73;;;1.63;;
11887;SDS011;6003;42.756;23.130;2023-06-14T03:22:28;2.47;;;2.27;;
11887;SDS011;6003;42.756;23.130;2023-06-14T03:24:57;1.87;;;1.77;;
11887;SDS011;6003;42.756;23.130;2023-06-14T03:27:24;1.80;;;1.70;;
11887;SDS011;6003;42.756;23.130;2023-06-14T03:29:53;1.80;;;1.70;;
11887;SDS011;6003;42.756;23.130;2023-06-14T03:32:20;3.37;;;1.90;;
11887;SDS011;6003;42.756;23.130;2023-06-14T03:34:47;1.83;;;1.73;;
11887;SDS011;6003;42.756;23.130;2023-06-14T03:37:16;2.07;;;1.93;;
11887;SDS011;6003;42.756;23.130;2023-06-14T03:39:42;2.33;;;2.13;;
11887;SDS011;6003;42.756;23.130;2023-06-14T03:42:13;1.87;;;1.77;;
11887;SDS011;6003;42.756;23.130;2023-06-14T03:44:40;1.73;;;1.63;;
11887;SDS011;6003;42.756;23.130;2023-06-14T03:47:07;2.13;;;1.93;;
11887;SDS011;6003;42.756;23.130;2023-06-14T03:49:34;2.03;;;1.70;;
11887;SDS011;6003;42.756;23.130;2023-06-14T03:52:02;2.00;;;1.90;;
11887;SDS011;6003;42.756;23.130;2023-06-14T03:54:29;2.40;;;2.20;;
11887;SDS011;6003;42.756;23.130;2023-06-14T03:56:57;2.47;;;2.23;;
11887;SDS011;6003;42.756;23.130;2023-06-14T03:59:25;2.23;;;2.13;;
11887;SDS011;6003;42.756;23.130;2023-06-14T04:01:53;1.83;;;1.70;;
11887;SDS011;6003;42.756;23.130;2023-06-14T04:04:20;2.73;;;1.83;;
11887;SDS011;6003;42.756;23.130;2023-06-14T04:06:54;1.80;;;1.70;;
11887;SDS011;6003;42.756;23.130;2023-06-14T04:09:21;2.03;;;1.93;;
11887;SDS011;6003;42.756;23.130;2023-06-14T04:11:49;2.10;;;2.00;;
11887;SDS011;6003;42.756;23.130;2023-06-14T04:14:17;1.90;;;1.80;;
11887;SDS011;6003;42.756;23.130;2023-06-14T04:16:45;4.10;;;1.87;;
11887;SDS011;6003;42.756;23.130;2023-06-14T04:19:12;2.00;;;1.90;;
11887;SDS011;6003;42.756;23.130;2023-06-14T04:21:39;1.80;;;1.70;;
11887;SDS011;6003;42.756;23.130;2023-06-14T04:24:06;2.07;;;1.97;;
11887;SDS011;6003;42.756;23.130;2023-06-14T04:26:38;1.97;;;1.87;;
11887;SDS011;6003;42.756;23.130;2023-06-14T04:29:05;2.73;;;2.23;;
11887;SDS011;6003;42.756;23.130;2023-06-14T04:31:32;2.03;;;1.93;;
11887;SDS011;6003;42.756;23.130;2023-06-14T04:34:00;3.07;;;2.23;;
11887;SDS011;6003;42.756;23.130;2023-06-14T04:36:30;2.60;;;2.40;;
11887;SDS011;6003;42.756;23.130;2023-06-14T04:38:59;3.33;;;2.20;;
11887;SDS011;6003;42.756;23.130;2023-06-14T04:41:28;2.27;;;2.07;;
11887;SDS011;6003;42.756;23.130;2023-06-14T04:43:56;2.23;;;2.13;;
11887;SDS011;6003;42.756;23.130;2023-06-14T04:46:26;2.37;;;2.17;;
11887;SDS011;6003;42.756;23.130;2023-06-14T04:48:53;2.40;;;2.20;;
11887;SDS011;6003;42.756;23.130;2023-06-14T04:51:23;2.17;;;2.07;;
11887;SDS011;6003;42.756;23.130;2023-06-14T04:53:54;2.20;;;2.00;;
11887;SDS011;6003;42.756;23.130;2023-06-14T04:56:22;5.37;;;2.50;;
11887;SDS011;6003;42.756;23.130;2023-06-14T04:58:50;2.50;;;2.30;;
11887;SDS011;6003;42.756;23.130;2023-06-14T05:01:16;2.63;;;2.43;;
11887;SDS011;6003;42.756;23.130;2023-06-14T05:03:43;2.57;;;2.40;;
11887;SDS011;6003;42.756;23.130;2023-06-14T05:06:14;2.77;;;2.57;;
11887;SDS011;6003;42.756;23.130;2023-06-14T05:08:42;2.43;;;2.23;;
11887;SDS011;6003;42.756;23.130;2023-06-14T05:11:09;2.60;;;2.40;;
11887;SDS011;6003;42.756;23.130;2023-06-14T05:13:36;2.00;;;1.90;;
11887;SDS011;6003;42.756;23.130;2023-06-14T05:16:03;2.10;;;2.00;;
11887;SDS011;6003;42.756;23.130;2023-06-14T05:18:30;2.67;;;2.47;;
11887;SDS011;6003;42.756;23.130;2023-06-14T05:20:59;1.90;;;1.80;;
11887;SDS011;6003;42.756;23.130;2023-06-14T05:23:26;2.53;;;2.40;;
11887;SDS011;6003;42.756;23.130;2023-06-14T05:25:54;2.00;;;1.90;;
11887;SDS011;6003;42.756;23.130;2023-06-14T05:28:21;2.00;;;1.90;;
11887;SDS011;6003;42.756;23.130;2023-06-14T05:30:48;3.33;;;1.80;;
11887;SDS011;6003;42.756;23.130;2023-06-14T05:33:15;1.80;;;1.70;;
11887;SDS011;6003;42.756;23.130;2023-06-14T05:35:43;2.37;;;2.20;;
11887;SDS011;6003;42.756;23.130;2023-06-14T05:38:10;2.80;;;2.60;;
11887;SDS011;6003;42.756;23.130;2023-06-14T05:40:37;2.17;;;2.07;;
11887;SDS011;6003;42.756;23.130;2023-06-14T05:43:05;2.73;;;2.20;;
11887;SDS011;6003;42.756;23.130;2023-06-14T05:45:32;2.70;;;2.50;;
11887;SDS011;6003;42.756;23.130;2023-06-14T05:47:59;2.70;;;2.50;;
11887;SDS011;6003;42.756;23.130;2023-06-14T05:50:25;2.70;;;2.50;;
11887;SDS011;6003;42.756;23.130;2023-06-14T05:52:53;4.27;;;2.80;;
11887;SDS011;6003;42.756;23.130;2023-06-14T05:55:22;3.00;;;2.80;;
11887;SDS011;6003;42.756;23.130;2023-06-14T05:57:48;2.77;;;2.57;;
11887;SDS011;6003;42.756;23.130;2023-06-14T06:00:17;2.83;;;2.63;;
11887;SDS011;6003;42.756;23.130;2023-06-14T06:02:45;2.70;;;2.50;;
11887;SDS011;6003;42.756;23.130;2023-06-14T06:05:12;3.17;;;2.87;;
11887;SDS011;6003;42.756;23.130;2023-06-14T06:07:40;3.37;;;3.07;;
11887;SDS011;6003;42.756;23.130;2023-06-14T06:10:09;3.50;;;3.13;;
11887;SDS011;6003;42.756;23.130;2023-06-14T06:12:36;3.50;;;3.20;;
11887;SDS011;6003;42.756;23.130;2023-06-14T06:15:03;3.80;;;3.23;;
11887;SDS011;6003;42.756;23.130;2023-06-14T06:17:32;3.40;;;2.80;;
11887;SDS011;6003;42.756;23.130;2023-06-14T06:20:00;3.50;;;3.17;;
11887;SDS011;6003;42.756;23.130;2023-06-14T06:22:27;2.90;;;2.70;;
11887;SDS011;6003;42.756;23.130;2023-06-14T06:24:53;2.93;;;2.73;;
11887;SDS011;6003;42.756;23.130;2023-06-14T06:27:20;3.13;;;2.93;;
11887;SDS011;6003;42.756;23.130;2023-06-14T06:29:47;2.97;;;2.77;;
11887;SDS011;6003;42.756;23.130;2023-06-14T06:32:15;3.40;;;3.10;;
11887;SDS011;6003;42.756;23.130;2023-06-14T06:34:43;3.63;;;3.33;;
11887;SDS011;6003;42.756;23.130;2023-06-14T06:37:10;3.50;;;3.20;;
11887;SDS011;6003;42.756;23.130;2023-06-14T06:39:37;2.67;;;2.47;;
11887;SDS011;6003;42.756;23.130;2023-06-14T06:42:03;3.20;;;2.83;;
11887;SDS011;6003;42.756;23.130;2023-06-14T06:44:31;3.73;;;3.00;;
11887;SDS011;6003;42.756;23.130;2023-06-14T06:46:58;3.07;;;2.70;;
11887;SDS011;6003;42.756;23.130;2023-06-14T06:49:25;3.27;;;2.77;;
11887;SDS011;6003;42.756;23.130;2023-06-14T06:52:02;3.03;;;2.83;;
11887;SDS011;6003;42.756;23.130;2023-06-14T06:54:31;3.03;;;2.83;;
11887;SDS011;6003;42.756;23.130;2023-06-14T06:56:58;3.53;;;2.50;;
11887;SDS011;6003;42.756;23.130;2023-06-14T06:59:25;3.00;;;2.80;;
11887;SDS011;6003;42.756;23.130;2023-06-14T07:01:52;2.67;;;2.47;;
11887;SDS011;6003;42.756;23.130;2023-06-14T07:04:19;2.80;;;2.60;;
11887;SDS011;6003;42.756;23.130;2023-06-14T07:06:46;2.53;;;2.43;;
11887;SDS011;6003;42.756;23.130;2023-06-14T07:09:14;2.57;;;2.37;;
11887;SDS011;6003;42.756;23.130;2023-06-14T07:11:42;2.83;;;2.50;;
11887;SDS011;6003;42.756;23.130;2023-06-14T07:14:10;3.00;;;2.80;;
11887;SDS011;6003;42.756;23.130;2023-06-14T07:16:37;3.77;;;3.47;;
11887;SDS011;6003;42.756;23.130;2023-06-14T07:19:03;4.00;;;3.50;;
11887;SDS011;6003;42.756;23.130;2023-06-14T07:21:30;4.00;;;2.93;;
11887;SDS011;6003;42.756;23.130;2023-06-14T07:23:57;4.20;;;3.50;;
11887;SDS011;6003;42.756;23.130;2023-06-14T07:26:25;4.93;;;3.37;;
11887;SDS011;6003;42.756;23.130;2023-06-14T07:28:52;4.07;;;3.77;;
11887;SDS011;6003;42.756;23.130;2023-06-14T07:31:19;3.97;;;3.67;;
11887;SDS011;6003;42.756;23.130;2023-06-14T07:33:46;3.23;;;2.93;;
11887;SDS011;6003;42.756;23.130;2023-06-14T07:36:13;4.00;;;3.70;;
11887;SDS011;6003;42.756;23.130;2023-06-14T07:38:39;3.60;;;3.30;;
11887;SDS011;6003;42.756;23.130;2023-06-14T07:41:06;3.63;;;3.33;;
11887;SDS011;6003;42.756;23.130;2023-06-14T07:43:34;3.50;;;3.20;;
11887;SDS011;6003;42.756;23.130;2023-06-14T07:46:01;4.07;;;3.43;;
11887;SDS011;6003;42.756;23.130;2023-06-14T07:48:28;3.60;;;3.30;;
11887;SDS011;6003;42.756;23.130;2023-06-14T07:50:55;3.53;;;3.23;;
11887;SDS011;6003;42.756;23.130;2023-06-14T07:53:22;3.37;;;3.10;;
11887;SDS011;6003;42.756;23.130;2023-06-14T07:55:48;3.53;;;3.23;;
11887;SDS011;6003;42.756;23.130;2023-06-14T07:58:16;5.23;;;3.30;;
11887;SDS011;6003;42.756;23.130;2023-06-14T08:00:44;3.03;;;2.80;;
11887;SDS011;6003;42.756;23.130;2023-06-14T08:03:11;3.53;;;3.30;;
11887;SDS011;6003;42.756;23.130;2023-06-14T08:05:38;3.47;;;3.20;;
11887;SDS011;6003;42.756;23.130;2023-06-14T08:08:04;3.50;;;3.20;;
11887;SDS011;6003;42.756;23.130;2023-06-14T08:10:31;4.03;;;3.40;;
11887;SDS011;6003;42.756;23.130;2023-06-14T08:12:58;3.77;;;3.37;;
11887;SDS011;6003;42.756;23.130;2023-06-14T08:15:25;3.30;;;3.00;;
11887;SDS011;6003;42.756;23.130;2023-06-14T08:17:53;3.50;;;3.20;;
11887;SDS011;6003;42.756;23.130;2023-06-14T08:20:20;4.20;;;3.90;;
11887;SDS011;6003;42.756;23.130;2023-06-14T08:22:47;4.30;;;3.90;;
11887;SDS011;6003;42.756;23.130;2023-06-14T08:25:13;3.70;;;3.40;;
11887;SDS011;6003;42.756;23.130;2023-06-14T08:27:40;3.67;;;3.30;;
11887;SDS011;6003;42.756;23.130;2023-06-14T08:30:07;3.97;;;3.57;;
11887;SDS011;6003;42.756;23.130;2023-06-14T08:32:35;4.17;;;3.87;;
11887;SDS011;6003;42.756;23.130;2023-06-14T08:35:04;4.20;;;3.77;;
11887;SDS011;6003;42.756;23.130;2023-06-14T08:37:32;5.10;;;3.67;;
11887;SDS011;6003;42.756;23.130;2023-06-14T08:39:59;3.80;;;3.50;;
11887;SDS011;6003;42.756;23.130;2023-06-14T08:42:26;4.03;;;3.72;;
11887;SDS011;6003;42.756;23.130;2023-06-14T08:44:53;4.13;;;3.77;;
11887;SDS011;6003;42.756;23.130;2023-06-14T08:47:19;4.18;;;3.80;;
11887;SDS011;6003;42.756;23.130;2023-06-14T08:49:49;4.50;;;4.10;;
11887;SDS011;6003;42.756;23.130;2023-06-14T08:52:18;3.90;;;3.60;;
11887;SDS011;6003;42.756;23.130;2023-06-14T08:54:47;3.80;;;3.50;;
11887;SDS011;6003;42.756;23.130;2023-06-14T08:57:15;4.30;;;3.90;;
11887;SDS011;6003;42.756;23.130;2023-06-14T08:59:46;4.33;;;3.93;;
11887;SDS011;6003;42.756;23.130;2023-06-14T09:02:17;4.00;;;3.67;;
11887;SDS011;6003;42.756;23.130;2023-06-14T09:04:47;4.33;;;3.93;;
11887;SDS011;6003;42.756;23.130;2023-06-14T09:07:14;4.53;;;4.13;;
11887;SDS011;6003;42.756;23.130;2023-06-14T09:09:43;4.63;;;4.20;;
11887;SDS011;6003;42.756;23.130;2023-06-14T09:12:10;5.03;;;4.53;;
11887;SDS011;6003;42.756;23.130;2023-06-14T09:14:37;4.43;;;4.13;;
11887;SDS011;6003;42.756;23.130;2023-06-14T09:17:07;4.80;;;4.40;;
11887;SDS011;6003;42.756;23.130;2023-06-14T09:19:33;5.00;;;4.50;;
11887;SDS011;6003;42.756;23.130;2023-06-14T09:22:01;4.53;;;4.13;;
11887;SDS011;6003;42.756;23.130;2023-06-14T09:24:29;4.00;;;3.70;;
11887;SDS011;6003;42.756;23.130;2023-06-14T09:26:57;4.93;;;4.43;;
11887;SDS011;6003;42.756;23.130;2023-06-14T09:29:23;4.37;;;3.97;;
11887;SDS011;6003;42.756;23.130;2023-06-14T09:31:51;4.68;;;4.22;;
11887;SDS011;6003;42.756;23.130;2023-06-14T09:34:18;4.80;;;4.40;;
11887;SDS011;6003;42.756;23.130;2023-06-14T09:36:48;5.60;;;4.47;;
11887;SDS011;6003;42.756;23.130;2023-06-14T09:39:16;4.65;;;4.25;;
11887;SDS011;6003;42.756;23.130;2023-06-14T09:41:43;4.63;;;4.22;;
11887;SDS011;6003;42.756;23.130;2023-06-14T09:44:12;4.90;;;4.32;;
11887;SDS011;6003;42.756;23.130;2023-06-14T09:46:38;4.55;;;4.15;;
11887;SDS011;6003;42.756;23.130;2023-06-14T09:49:05;6.05;;;4.03;;
11887;SDS011;6003;42.756;23.130;2023-06-14T09:51:32;4.50;;;4.10;;
11887;SDS011;6003;42.756;23.130;2023-06-14T09:54:02;4.50;;;4.10;;
11887;SDS011;6003;42.756;23.130;2023-06-14T09:56:30;4.53;;;4.13;;
11887;SDS011;6003;42.756;23.130;2023-06-14T09:58:58;4.38;;;4.00;;
11887;SDS011;6003;42.756;23.130;2023-06-14T10:01:29;4.77;;;4.27;;
11887;SDS011;6003;42.756;23.130;2023-06-14T10:03:58;4.40;;;4.10;;
11887;SDS011;6003;42.756;23.130;2023-06-14T10:06:29;4.73;;;4.33;;
11887;SDS011;6003;42.756;23.130;2023-06-14T10:08:57;5.15;;;4.70;;
11887;SDS011;6003;42.756;23.130;2023-06-14T10:11:25;5.65;;;5.07;;
11887;SDS011;6003;42.756;23.130;2023-06-14T10:13:53;7.40;;;4.65;;
11887;SDS011;6003;42.756;23.130;2023-06-14T10:16:23;5.30;;;4.78;;
11887;SDS011;6003;42.756;23.130;2023-06-14T10:19:00;4.45;;;4.15;;
11887;SDS011;6003;42.756;23.130;2023-06-14T10:21:32;5.03;;;4.55;;
11887;SDS011;6003;42.756;23.130;2023-06-14T10:24:08;5.70;;;5.20;;
11887;SDS011;6003;42.756;23.130;2023-06-14T10:26:49;5.45;;;4.95;;
11887;SDS011;6003;42.756;23.130;2023-06-14T10:29:16;6.47;;;4.75;;
11887;SDS011;6003;42.756;23.130;2023-06-14T10:31:44;5.97;;;5.47;;
11887;SDS011;6003;42.756;23.130;2023-06-14T10:34:20;5.30;;;4.80;;
11887;SDS011;6003;42.756;23.130;2023-06-14T10:37:00;6.00;;;5.40;;
11887;SDS011;6003;42.756;23.130;2023-06-14T10:39:29;4.82;;;4.43;;
11887;SDS011;6003;42.756;23.130;2023-06-14T10:41:56;5.30;;;4.70;;
11887;SDS011;6003;42.756;23.130;2023-06-14T10:47:22;6.47;;;4.43;;
11887;SDS011;6003;42.756;23.130;2023-06-14T10:49:52;5.97;;;4.38;;
11887;SDS011;6003;42.756;23.130;2023-06-14T10:52:21;5.28;;;4.78;;
11887;SDS011;6003;42.756;23.130;2023-06-14T10:54:59;5.72;;;5.13;;
11887;SDS011;6003;42.756;23.130;2023-06-14T10:57:27;6.53;;;5.87;;
11887;SDS011;6003;42.756;23.130;2023-06-14T10:59:54;5.43;;;4.93;;
11887;SDS011;6003;42.756;23.130;2023-06-14T11:02:29;5.83;;;4.93;;
11887;SDS011;6003;42.756;23.130;2023-06-14T11:05:20;6.40;;;5.00;;
11887;SDS011;6003;42.756;23.130;2023-06-14T11:07:55;5.87;;;5.37;;
11887;SDS011;6003;42.756;23.130;2023-06-14T11:10:35;5.60;;;5.13;;
11887;SDS011;6003;42.756;23.130;2023-06-14T11:13:03;6.27;;;5.67;;
11887;SDS011;6003;42.756;23.130;2023-06-14T11:15:31;5.97;;;5.47;;
11887;SDS011;6003;42.756;23.130;2023-06-14T11:17:58;7.13;;;6.00;;
11887;SDS011;6003;42.756;23.130;2023-06-14T11:20:29;7.25;;;5.40;;
11887;SDS011;6003;42.756;23.130;2023-06-14T11:22:57;5.90;;;5.40;;
11887;SDS011;6003;42.756;23.130;2023-06-14T11:25:24;7.40;;;5.90;;
11887;SDS011;6003;42.756;23.130;2023-06-14T11:27:53;10.07;;;6.00;;
11887;SDS011;6003;42.756;23.130;2023-06-14T11:30:21;8.60;;;5.60;;
11887;SDS011;6003;42.756;23.130;2023-06-14T11:32:48;7.10;;;5.53;;
11887;SDS011;6003;42.756;23.130;2023-06-14T11:35:15;8.15;;;6.25;;
11887;SDS011;6003;42.756;23.130;2023-06-14T11:37:44;7.45;;;5.90;;
11887;SDS011;6003;42.756;23.130;2023-06-14T11:40:12;7.03;;;6.15;;
11887;SDS011;6003;42.756;23.130;2023-06-14T11:42:40;6.30;;;5.68;;
11887;SDS011;6003;42.756;23.130;2023-06-14T11:45:08;6.28;;;5.30;;
11887;SDS011;6003;42.756;23.130;2023-06-14T11:47:36;5.75;;;5.18;;
11887;SDS011;6003;42.756;23.130;2023-06-14T11:50:05;5.45;;;4.90;;
11887;SDS011;6003;42.756;23.130;2023-06-14T11:52:33;5.90;;;5.28;;
11887;SDS011;6003;42.756;23.130;2023-06-14T11:55:02;5.68;;;5.10;;
11887;SDS011;6003;42.756;23.130;2023-06-14T11:57:30;6.88;;;5.50;;
11887;SDS011;6003;42.756;23.130;2023-06-14T12:00:02;7.30;;;5.47;;
11887;SDS011;6003;42.756;23.130;2023-06-14T12:02:32;5.38;;;4.88;;
11887;SDS011;6003;42.756;23.130;2023-06-14T12:05:04;5.93;;;5.43;;
11887;SDS011;6003;42.756;23.130;2023-06-14T12:07:33;6.80;;;5.45;;
11887;SDS011;6003;42.756;23.130;2023-06-14T12:10:07;6.70;;;5.23;;
11887;SDS011;6003;42.756;23.130;2023-06-14T12:12:36;5.67;;;5.07;;
11887;SDS011;6003;42.756;23.130;2023-06-14T12:15:04;5.80;;;5.20;;
11887;SDS011;6003;42.756;23.130;2023-06-14T12:17:32;5.65;;;5.05;;
11887;SDS011;6003;42.756;23.130;2023-06-14T12:20:04;5.70;;;5.17;;
11887;SDS011;6003;42.756;23.130;2023-06-14T12:22:36;5.87;;;4.77;;
11887;SDS011;6003;42.756;23.130;2023-06-14T12:25:03;6.18;;;4.75;;
11887;SDS011;6003;42.756;23.130;2023-06-14T12:27:32;5.53;;;4.97;;
11887;SDS011;6003;42.756;23.130;2023-06-14T12:29:59;8.73;;;5.20;;
11887;SDS011;6003;42.756;23.130;2023-06-14T12:32:26;8.50;;;5.20;;
11887;SDS011;6003;42.756;23.130;2023-06-14T12:34:54;6.23;;;5.30;;
11887;SDS011;6003;42.756;23.130;2023-06-14T12:37:20;6.37;;;5.63;;
11887;SDS011;6003;42.756;23.130;2023-06-14T12:39:47;6.00;;;5.23;;
11887;SDS011;6003;42.756;23.130;2023-06-14T12:42:15;7.13;;;5.00;;
11887;SDS011;6003;42.756;23.130;2023-06-14T12:44:44;6.63;;;5.17;;
11887;SDS011;6003;42.756;23.130;2023-06-14T12:47:11;5.10;;;4.60;;
11887;SDS011;6003;42.756;23.130;2023-06-14T12:49:38;6.47;;;5.37;;
11887;SDS011;6003;42.756;23.130;2023-06-14T12:52:06;8.00;;;5.73;;
11887;SDS011;6003;42.756;23.130;2023-06-14T12:54:34;6.83;;;5.20;;
11887;SDS011;6003;42.756;23.130;2023-06-14T12:57:01;6.72;;;5.57;;
11887;SDS011;6003;42.756;23.130;2023-06-14T12:59:28;6.05;;;5.35;;
11887;SDS011;6003;42.756;23.130;2023-06-14T13:01:59;8.47;;;5.40;;
11887;SDS011;6003;42.756;23.130;2023-06-14T13:04:37;6.80;;;5.68;;
11887;SDS011;6003;42.756;23.130;2023-06-14T13:07:04;5.80;;;5.20;;
11887;SDS011;6003;42.756;23.130;2023-06-14T13:09:31;5.10;;;4.63;;
11887;SDS011;6003;42.756;23.130;2023-06-14T13:11:58;6.37;;;5.40;;
11887;SDS011;6003;42.756;23.130;2023-06-14T13:14:24;5.65;;;5.15;;
11887;SDS011;6003;42.756;23.130;2023-06-14T13:16:51;6.17;;;4.97;;
11887;SDS011;6003;42.756;23.130;2023-06-14T13:19:19;5.95;;;5.35;;
11887;SDS011;6003;42.756;23.130;2023-06-14T13:21:47;5.60;;;5.10;;
11887;SDS011;6003;42.756;23.130;2023-06-14T13:24:17;6.03;;;5.33;;
11887;SDS011;6003;42.756;23.130;2023-06-14T13:26:50;5.87;;;5.00;;
11887;SDS011;6003;42.756;23.130;2023-06-14T13:29:17;5.40;;;4.90;;
11887;SDS011;6003;42.756;23.130;2023-06-14T13:31:44;6.25;;;5.28;;
11887;SDS011;6003;42.756;23.130;2023-06-14T13:34:11;5.53;;;5.03;;
11887;SDS011;6003;42.756;23.130;2023-06-14T13:36:40;5.50;;;5.00;;
11887;SDS011;6003;42.756;23.130;2023-06-14T13:39:07;6.45;;;5.47;;
11887;SDS011;6003;42.756;23.130;2023-06-14T13:41:34;5.45;;;4.95;;
11887;SDS011;6003;42.756;23.130;2023-06-14T13:44:00;5.18;;;4.68;;
11887;SDS011;6003;42.756;23.130;2023-06-14T13:46:29;4.77;;;4.30;;
11887;SDS011;6003;42.756;23.130;2023-06-14T13:48:56;5.67;;;5.07;;
11887;SDS011;6003;42.756;23.130;2023-06-14T13:51:23;5.13;;;4.63;;
11887;SDS011;6003;42.756;23.130;2023-06-14T13:53:53;6.10;;;4.97;;
11887;SDS011;6003;42.756;23.130;2023-06-14T13:56:20;5.60;;;4.80;;
11887;SDS011;6003;42.756;23.130;2023-06-14T13:58:49;5.33;;;4.60;;
11887;SDS011;6003;42.756;23.130;2023-06-14T14:01:16;5.60;;;4.77;;
11887;SDS011;6003;42.756;23.130;2023-06-14T14:03:44;4.10;;;3.70;;
11887;SDS011;6003;42.756;23.130;2023-06-14T14:06:11;3.67;;;3.37;;
11887;SDS011;6003;42.756;23.130;2023-06-14T14:08:38;3.50;;;3.20;;
11887;SDS011;6003;42.756;23.130;2023-06-14T14:11:07;3.80;;;3.47;;
11887;SDS011;6003;42.756;23.130;2023-06-14T14:13:36;3.77;;;3.47;;
11887;SDS011;6003;42.756;23.130;2023-06-14T14:16:03;3.67;;;3.40;;
11887;SDS011;6003;42.756;23.130;2023-06-14T14:18:31;4.37;;;3.57;;
11887;SDS011;6003;42.756;23.130;2023-06-14T14:20:58;3.40;;;3.10;;
11887;SDS011;6003;42.756;23.130;2023-06-14T14:23:27;3.90;;;3.43;;
11887;SDS011;6003;42.756;23.130;2023-06-14T14:25:54;2.80;;;2.60;;
11887;SDS011;6003;42.756;23.130;2023-06-14T14:28:23;3.17;;;2.87;;
11887;SDS011;6003;42.756;23.130;2023-06-14T14:30:50;3.93;;;3.23;;
11887;SDS011;6003;42.756;23.130;2023-06-14T14:33:18;6.07;;;4.90;;
11887;SDS011;6003;42.756;23.130;2023-06-14T14:35:45;3.97;;;3.27;;
11887;SDS011;6003;42.756;23.130;2023-06-14T14:38:12;3.60;;;3.00;;
11887;SDS011;6003;42.756;23.130;2023-06-14T14:40:39;4.73;;;3.00;;
11887;SDS011;6003;42.756;23.130;2023-06-14T14:43:06;4.27;;;2.90;;
11887;SDS011;6003;42.756;23.130;2023-06-14T14:45:34;3.33;;;3.13;;
11887;SDS011;6003;42.756;23.130;2023-06-14T14:48:01;4.80;;;3.30;;
11887;SDS011;6003;42.756;23.130;2023-06-14T14:50:28;3.50;;;3.07;;
11887;SDS011;6003;42.756;23.130;2023-06-14T14:52:55;3.03;;;2.83;;
11887;SDS011;6003;42.756;23.130;2023-06-14T14:55:22;3.83;;;3.37;;